createdAt,value
2023-02-06T00:00:53.278Z,-3.10
2023-02-06T00:03:20.533Z,-3.20
2023-02-06T00:05:58.891Z,-3.20
2023-02-06T00:08:26.893Z,-3.30
2023-02-06T00:10:54.244Z,-3.30
2023-02-06T00:13:21.698Z,-3.30
2023-02-06T00:15:48.590Z,-3.30
2023-02-06T00:18:15.600Z,-3.28
2023-02-06T00:20:42.418Z,-3.28
2023-02-06T00:23:09.272Z,-3.26
2023-02-06T00:25:36.282Z,-3.30
2023-02-06T00:28:03.180Z,-3.28
2023-02-06T00:30:30.110Z,-3.22
2023-02-06T00:32:56.805Z,-3.22
2023-02-06T00:35:23.466Z,-3.20
2023-02-06T00:37:50.961Z,-3.20
2023-02-06T00:40:19.879Z,-3.20
2023-02-06T00:42:46.662Z,-3.20
2023-02-06T00:45:13.521Z,-3.22
2023-02-06T00:47:41.185Z,-3.24
2023-02-06T00:50:09.874Z,-3.30
2023-02-06T00:52:36.558Z,-3.30
2023-02-06T00:55:05.278Z,-3.30
2023-02-06T00:57:32.018Z,-3.30
2023-02-06T00:59:58.744Z,-3.30
2023-02-06T01:02:26.968Z,-3.30
2023-02-06T01:04:53.773Z,-3.30
2023-02-06T01:07:20.494Z,-3.30
2023-02-06T01:09:47.366Z,-3.30
2023-02-06T01:12:14.104Z,-3.30
2023-02-06T01:14:40.853Z,-3.40
2023-02-06T01:17:07.607Z,-3.40
2023-02-06T01:19:34.427Z,-3.50
2023-02-06T01:22:01.164Z,-3.50
2023-02-06T01:24:28.011Z,-3.60
2023-02-06T01:26:54.851Z,-3.60
2023-02-06T01:29:21.574Z,-3.60
2023-02-06T01:31:48.343Z,-3.60
2023-02-06T01:34:17.216Z,-3.62
2023-02-06T01:36:43.958Z,-3.60
2023-02-06T01:39:10.919Z,-3.60
2023-02-06T01:41:37.746Z,-3.60
2023-02-06T01:44:12.854Z,-3.60
2023-02-06T01:46:41.141Z,-3.60
2023-02-06T01:49:13.594Z,-3.60
2023-02-06T01:51:41.224Z,-3.66
2023-02-06T01:54:09.269Z,-3.70
2023-02-06T01:56:49.821Z,-3.70
2023-02-06T01:59:16.878Z,-3.70
2023-02-06T02:01:44.774Z,-3.70
2023-02-06T02:04:16.613Z,-3.70
2023-02-06T02:06:45.580Z,-3.70
2023-02-06T02:09:14.089Z,-3.70
2023-02-06T02:11:43.215Z,-3.70
2023-02-06T02:14:12.977Z,-3.70
2023-02-06T02:17:15.195Z,-3.70
2023-02-06T02:20:06.762Z,-3.70
2023-02-06T02:22:45.612Z,-3.76
2023-02-06T02:25:24.533Z,-3.80
2023-02-06T02:28:13.271Z,-3.80
2023-02-06T02:30:43.272Z,-3.86
2023-02-06T02:33:20.620Z,-3.90
2023-02-06T02:35:53.472Z,-3.90
2023-02-06T02:38:44.084Z,-3.90
2023-02-06T02:41:40.102Z,-3.90
2023-02-06T02:44:20.460Z,-4.00
2023-02-06T02:46:52.221Z,-4.10
2023-02-06T02:49:24.344Z,-4.10
2023-02-06T02:51:51.826Z,-4.10
2023-02-06T02:54:18.834Z,-4.20
2023-02-06T02:56:46.015Z,-4.20
2023-02-06T02:59:24.222Z,-4.20
2023-02-06T03:01:59.287Z,-4.22
2023-02-06T03:04:32.010Z,-4.24
2023-02-06T03:07:05.885Z,-4.28
2023-02-06T03:09:59.525Z,-4.22
2023-02-06T03:12:29.146Z,-4.22
2023-02-06T03:15:08.598Z,-4.20
2023-02-06T03:17:44.118Z,-4.20
2023-02-06T03:20:12.121Z,-4.20
2023-02-06T03:22:40.052Z,-4.20
2023-02-06T03:25:12.108Z,-4.20
2023-02-06T03:27:41.454Z,-4.20
2023-02-06T03:30:12.172Z,-4.20
2023-02-06T03:32:43.123Z,-4.22
2023-02-06T03:35:18.345Z,-4.20
2023-02-06T03:37:46.101Z,-4.26
2023-02-06T03:40:14.090Z,-4.30
2023-02-06T03:42:56.266Z,-4.30
2023-02-06T03:45:27.832Z,-4.36
2023-02-06T03:47:58.761Z,-4.30
2023-02-06T03:50:27.121Z,-4.40
2023-02-06T03:52:59.119Z,-4.40
2023-02-06T03:55:25.981Z,-4.40
2023-02-06T03:57:59.037Z,-4.40
2023-02-06T04:00:27.016Z,-4.40
2023-02-06T04:02:55.744Z,-4.40
2023-02-06T04:05:22.614Z,-4.40
2023-02-06T04:07:49.475Z,-4.40
2023-02-06T04:10:16.193Z,-4.40
2023-02-06T04:12:43.057Z,-4.40
2023-02-06T04:15:10.832Z,-4.40
2023-02-06T04:17:53.660Z,-4.42
2023-02-06T04:20:24.864Z,-4.48
2023-02-06T04:22:51.632Z,-4.50
2023-02-06T04:25:18.457Z,-4.50
2023-02-06T04:27:45.218Z,-4.50
2023-02-06T04:30:12.723Z,-4.60
2023-02-06T04:32:39.493Z,-4.60
2023-02-06T04:35:06.464Z,-4.70
2023-02-06T04:37:33.233Z,-4.70
2023-02-06T04:39:59.988Z,-4.70
2023-02-06T04:42:26.784Z,-4.70
2023-02-06T04:44:53.602Z,-4.70
2023-02-06T04:47:20.339Z,-4.70
2023-02-06T04:49:47.194Z,-4.70
2023-02-06T04:52:14.044Z,-4.70
2023-02-06T04:54:40.884Z,-4.70
2023-02-06T04:57:07.589Z,-4.70
2023-02-06T04:59:34.387Z,-4.70
2023-02-06T05:02:01.059Z,-4.70
2023-02-06T05:04:27.883Z,-4.50
2023-02-06T05:06:54.524Z,-4.40
2023-02-06T05:09:21.361Z,-4.32
2023-02-06T05:11:48.109Z,-4.30
2023-02-06T05:14:14.898Z,-4.20
2023-02-06T05:16:41.633Z,-4.20
2023-02-06T05:19:08.579Z,-4.24
2023-02-06T05:21:35.346Z,-4.10
2023-02-06T05:24:02.367Z,-4.08
2023-02-06T05:26:29.277Z,-4.02
2023-02-06T05:28:56.153Z,-4.02
2023-02-06T05:31:22.953Z,-4.10
2023-02-06T05:33:53.727Z,-4.10
2023-02-06T05:36:22.075Z,-4.10
2023-02-06T05:38:49.448Z,-4.20
2023-02-06T05:41:16.844Z,-4.30
2023-02-06T05:43:43.550Z,-4.40
2023-02-06T05:46:12.943Z,-4.40
2023-02-06T05:48:40.879Z,-4.40
2023-02-06T05:51:08.589Z,-4.40
2023-02-06T05:53:35.528Z,-4.40
2023-02-06T05:56:02.368Z,-4.32
2023-02-06T05:58:29.366Z,-4.30
2023-02-06T06:00:56.070Z,-4.30
2023-02-06T06:03:22.815Z,-4.20
2023-02-06T06:05:50.159Z,-4.18
2023-02-06T06:08:17.004Z,-4.10
2023-02-06T06:10:43.758Z,-4.00
2023-02-06T06:13:10.789Z,-4.00
2023-02-06T06:15:38.357Z,-3.90
2023-02-06T06:18:05.316Z,-3.80
2023-02-06T06:20:32.146Z,-3.80
2023-02-06T06:22:58.882Z,-3.70
2023-02-06T06:25:25.716Z,-3.64
2023-02-06T06:27:52.704Z,-3.60
2023-02-06T06:30:19.706Z,-3.60
2023-02-06T06:32:46.432Z,-3.50
2023-02-06T06:35:13.187Z,-3.50
2023-02-06T06:37:39.931Z,-3.48
2023-02-06T06:40:07.074Z,-3.40
2023-02-06T06:42:33.817Z,-3.38
2023-02-06T06:45:00.531Z,-3.30
2023-02-06T06:47:27.709Z,-3.20
2023-02-06T06:49:54.434Z,-3.20
2023-02-06T06:52:25.260Z,-3.10
2023-02-06T06:54:52.754Z,-3.10
2023-02-06T06:57:20.746Z,-3.08
2023-02-06T06:59:47.563Z,-3.00
2023-02-06T07:02:15.376Z,-3.00
2023-02-06T07:04:42.562Z,-2.90
2023-02-06T07:07:09.652Z,-2.90
2023-02-06T07:09:36.458Z,-2.88
2023-02-06T07:12:03.498Z,-2.90
2023-02-06T07:14:30.277Z,-3.00
2023-02-06T07:16:57.091Z,-3.00
2023-02-06T07:19:23.932Z,-3.10
2023-02-06T07:21:50.767Z,-3.10
2023-02-06T07:24:17.616Z,-3.10
2023-02-06T07:26:44.861Z,-3.00
2023-02-06T07:29:11.697Z,-3.00
2023-02-06T07:31:38.518Z,-2.90
2023-02-06T07:34:05.350Z,-2.86
2023-02-06T07:36:32.032Z,-2.80
2023-02-06T07:38:58.758Z,-2.70
2023-02-06T07:41:25.605Z,-2.60
2023-02-06T07:43:54.394Z,-2.60
2023-02-06T07:46:21.470Z,-2.50
2023-02-06T07:48:48.387Z,-2.50
2023-02-06T07:51:15.127Z,-2.40
2023-02-06T07:53:41.867Z,-2.40
2023-02-06T07:56:14.841Z,-2.30
2023-02-06T07:58:42.318Z,-2.30
2023-02-06T08:01:09.498Z,-2.20
2023-02-06T08:03:37.120Z,-2.20
2023-02-06T08:06:15.143Z,-2.20
2023-02-06T08:08:42.933Z,-2.20
2023-02-06T08:11:12.954Z,-2.20
2023-02-06T08:13:39.953Z,-2.20
2023-02-06T08:16:10.288Z,-2.20
2023-02-06T08:18:38.314Z,-2.10
2023-02-06T08:21:07.533Z,-2.00
2023-02-06T08:23:34.310Z,-1.90
2023-02-06T08:26:15.885Z,-1.82
2023-02-06T08:28:44.851Z,-1.70
2023-02-06T08:31:14.585Z,-1.60
2023-02-06T08:33:42.232Z,-1.50
2023-02-06T08:36:10.208Z,-1.40
2023-02-06T08:38:37.528Z,-1.24
2023-02-06T08:41:05.329Z,-1.10
2023-02-06T08:43:33.173Z,-1.00
2023-02-06T08:46:00.316Z,-1.00
2023-02-06T08:48:28.067Z,-0.90
2023-02-06T08:51:05.799Z,-0.90
2023-02-06T08:53:32.760Z,-0.80
2023-02-06T08:56:05.963Z,-0.66
2023-02-06T08:58:33.640Z,-0.50
2023-02-06T09:01:07.620Z,-0.40
2023-02-06T09:03:35.399Z,-0.30
2023-02-06T09:06:09.759Z,-0.24
2023-02-06T09:08:38.283Z,-0.20
2023-02-06T09:11:07.252Z,-0.10
2023-02-06T09:13:34.819Z,0.00
2023-02-06T09:16:02.427Z,0.08
2023-02-06T09:18:29.545Z,0.16
2023-02-06T09:21:08.352Z,0.20
2023-02-06T09:23:36.046Z,0.30
2023-02-06T09:26:02.957Z,0.42
2023-02-06T09:28:30.005Z,0.60
2023-02-06T09:30:56.932Z,0.70
2023-02-06T09:33:25.732Z,0.80
2023-02-06T09:36:07.461Z,0.80
2023-02-06T09:38:35.243Z,0.80
2023-02-06T09:41:13.001Z,0.80
2023-02-06T09:43:51.720Z,0.80
2023-02-06T09:46:24.007Z,0.80
2023-02-06T09:48:51.231Z,0.80
2023-02-06T09:51:22.786Z,0.80
2023-02-06T09:54:34.312Z,0.90
2023-02-06T09:57:31.425Z,1.00
2023-02-06T10:00:16.124Z,1.18
2023-02-06T10:03:07.907Z,1.26
2023-02-06T10:05:53.146Z,1.34
2023-02-06T10:08:34.546Z,1.50
2023-02-06T10:11:28.849Z,1.60
2023-02-06T10:14:00.116Z,1.80
2023-02-06T10:16:36.056Z,1.90
2023-02-06T10:19:23.003Z,2.00
2023-02-06T10:22:02.507Z,2.10
2023-02-06T10:24:55.969Z,2.20
2023-02-06T10:27:22.746Z,2.36
2023-02-06T10:29:49.656Z,2.48
2023-02-06T10:32:16.412Z,2.50
2023-02-06T10:34:58.510Z,2.60
2023-02-06T10:37:47.802Z,2.70
2023-02-06T10:40:32.551Z,2.80
2023-02-06T10:43:28.054Z,2.94
2023-02-06T10:46:20.734Z,3.08
2023-02-06T10:49:14.084Z,3.10
2023-02-06T10:51:45.392Z,3.18
2023-02-06T10:54:18.543Z,3.20
2023-02-06T10:56:47.800Z,3.20
2023-02-06T10:59:34.213Z,3.22
2023-02-06T11:02:09.984Z,3.30
2023-02-06T11:04:46.203Z,3.30
2023-02-06T11:07:25.263Z,3.36
2023-02-06T11:09:52.817Z,3.40
2023-02-06T11:12:30.238Z,3.40
2023-02-06T11:15:01.517Z,3.40
2023-02-06T11:17:28.629Z,3.40
2023-02-06T11:20:12.429Z,3.32
2023-02-06T11:22:51.279Z,3.30
2023-02-06T11:25:24.931Z,3.36
2023-02-06T11:27:52.376Z,3.30
2023-02-06T11:30:34.849Z,3.30
2023-02-06T11:33:06.305Z,3.34
2023-02-06T11:35:59.152Z,3.40
2023-02-06T11:38:29.429Z,3.48
2023-02-06T11:41:00.879Z,3.50
2023-02-06T11:43:45.987Z,3.52
2023-02-06T11:46:18.833Z,3.60
2023-02-06T11:49:00.670Z,3.60
2023-02-06T11:51:46.955Z,3.60
2023-02-06T11:54:22.941Z,3.70
2023-02-06T11:57:18.514Z,3.70
2023-02-06T11:59:55.520Z,3.78
2023-02-06T12:02:37.295Z,3.80
2023-02-06T12:05:12.097Z,3.84
2023-02-06T12:08:04.409Z,3.90
2023-02-06T12:10:35.699Z,4.00
2023-02-06T12:13:25.571Z,4.00
2023-02-06T12:15:57.733Z,4.00
2023-02-06T12:18:34.429Z,4.00
2023-02-06T12:21:24.577Z,4.10
2023-02-06T12:24:02.082Z,4.00
2023-02-06T12:26:31.831Z,4.00
2023-02-06T12:29:09.766Z,3.90
2023-02-06T12:31:55.036Z,3.88
2023-02-06T12:34:28.466Z,3.80
2023-02-06T12:37:14.436Z,3.80
2023-02-06T12:39:43.434Z,3.80
2023-02-06T12:42:43.778Z,3.80
2023-02-06T12:45:22.702Z,3.80
2023-02-06T12:48:06.754Z,3.80
2023-02-06T12:50:40.591Z,3.80
2023-02-06T12:53:16.331Z,3.80
2023-02-06T12:56:21.643Z,3.80
2023-02-06T12:59:02.488Z,3.84
2023-02-06T13:01:38.062Z,3.90
2023-02-06T13:04:16.502Z,3.90
2023-02-06T13:06:52.953Z,3.90
2023-02-06T13:09:29.048Z,3.90
2023-02-06T13:12:12.969Z,3.88
2023-02-06T13:14:49.939Z,3.84
2023-02-06T13:17:40.280Z,3.80
2023-02-06T13:20:13.863Z,3.80
2023-02-06T13:23:09.259Z,3.70
2023-02-06T13:25:36.667Z,3.70
2023-02-06T13:28:21.955Z,3.60
2023-02-06T13:30:59.660Z,3.50
2023-02-06T13:33:58.210Z,3.50
2023-02-06T13:36:43.794Z,3.50
2023-02-06T13:39:31.761Z,3.50
2023-02-06T13:42:03.752Z,3.40
2023-02-06T13:44:38.431Z,3.20
2023-02-06T13:47:28.567Z,3.10
2023-02-06T13:50:31.338Z,3.00
2023-02-06T13:53:11.615Z,2.90
2023-02-06T13:56:06.291Z,2.82
2023-02-06T13:58:44.383Z,2.80
2023-02-06T14:01:31.031Z,2.74
2023-02-06T14:03:59.194Z,2.70
2023-02-06T14:06:56.945Z,2.60
2023-02-06T14:09:43.898Z,2.60
2023-02-06T14:12:34.875Z,2.50
2023-02-06T14:15:16.657Z,2.50
2023-02-06T14:18:17.512Z,2.40
2023-02-06T14:20:48.541Z,2.40
2023-02-06T14:23:45.439Z,2.30
2023-02-06T14:26:46.729Z,2.20
2023-02-06T14:29:22.511Z,2.10
2023-02-06T14:31:55.212Z,2.06
2023-02-06T14:34:40.521Z,2.00
2023-02-06T14:37:38.650Z,1.90
2023-02-06T14:40:25.348Z,1.80
2023-02-06T14:42:56.175Z,1.74
2023-02-06T14:45:42.936Z,1.70
2023-02-06T14:48:36.208Z,1.60
2023-02-06T14:51:03.718Z,1.52
2023-02-06T14:53:38.773Z,1.50
2023-02-06T14:56:12.520Z,1.50
2023-02-06T14:58:39.417Z,1.50
2023-02-06T15:01:20.746Z,1.44
2023-02-06T15:03:50.126Z,1.40
2023-02-06T15:06:32.304Z,1.40
2023-02-06T15:09:00.157Z,1.40
2023-02-06T15:11:33.071Z,1.40
2023-02-06T15:14:03.325Z,1.30
2023-02-06T15:16:31.028Z,1.30
2023-02-06T15:19:12.271Z,1.20
2023-02-06T15:21:41.472Z,1.20
2023-02-06T15:24:30.353Z,1.10
2023-02-06T15:27:02.188Z,1.10
2023-02-06T15:29:29.643Z,1.08
2023-02-06T15:32:08.495Z,1.00
2023-02-06T15:34:35.475Z,0.90
2023-02-06T15:37:20.263Z,0.90
2023-02-06T15:39:47.427Z,0.80
2023-02-06T15:42:14.580Z,0.80
2023-02-06T15:44:41.930Z,0.70
2023-02-06T15:47:14.050Z,0.66
2023-02-06T15:49:46.984Z,0.70
2023-02-06T15:52:30.872Z,0.60
2023-02-06T15:54:59.499Z,0.60
2023-02-06T15:57:34.113Z,0.50
2023-02-06T16:00:02.176Z,0.50
2023-02-06T16:02:40.351Z,0.42
2023-02-06T16:05:18.822Z,0.40
2023-02-06T16:07:49.451Z,0.30
2023-02-06T16:10:24.094Z,0.30
2023-02-06T16:12:52.022Z,0.20
2023-02-06T16:15:30.199Z,0.20
2023-02-06T16:17:58.694Z,0.10
2023-02-06T16:20:39.444Z,0.06
2023-02-06T16:23:44.682Z,0.00
2023-02-06T16:26:14.092Z,0.00
2023-02-06T16:29:01.979Z,-0.10
2023-02-06T16:31:31.037Z,-0.20
2023-02-06T16:34:05.206Z,-0.26
2023-02-06T16:36:33.677Z,-0.30
2023-02-06T16:39:04.406Z,-0.40
2023-02-06T16:41:38.230Z,-0.40
2023-02-06T16:44:12.818Z,-0.50
2023-02-06T16:46:39.673Z,-0.50
2023-02-06T16:49:12.771Z,-0.50
2023-02-06T16:51:41.849Z,-0.60
2023-02-06T16:54:16.596Z,-0.60
2023-02-06T16:56:43.325Z,-0.70
2023-02-06T16:59:10.165Z,-0.70
2023-02-06T17:01:37.051Z,-0.80
2023-02-06T17:04:04.269Z,-0.90
2023-02-06T17:06:34.400Z,-0.90
2023-02-06T17:09:08.276Z,-0.90
2023-02-06T17:11:36.473Z,-0.90
2023-02-06T17:14:05.148Z,-1.00
2023-02-06T17:16:32.436Z,-1.10
2023-02-06T17:18:59.675Z,-1.20
2023-02-06T17:21:29.936Z,-1.30
2023-02-06T17:23:57.070Z,-1.30
2023-02-06T17:26:25.321Z,-1.34
2023-02-06T17:28:52.605Z,-1.40
2023-02-06T17:31:20.225Z,-1.40
2023-02-06T17:33:47.859Z,-1.46
2023-02-06T17:36:18.763Z,-1.48
2023-02-06T17:38:46.502Z,-1.50
2023-02-06T17:41:13.558Z,-1.50
2023-02-06T17:43:41.014Z,-1.50
2023-02-06T17:46:08.085Z,-1.54
2023-02-06T17:48:36.632Z,-1.60
2023-02-06T17:51:05.937Z,-1.60
2023-02-06T17:53:33.217Z,-1.60
2023-02-06T17:56:08.001Z,-1.60
2023-02-06T17:58:35.391Z,-1.64
2023-02-06T18:01:02.426Z,-1.70
2023-02-06T18:03:29.472Z,-1.70
2023-02-06T18:05:58.532Z,-1.70
2023-02-06T18:08:25.697Z,-1.78
2023-02-06T18:10:53.027Z,-1.80
2023-02-06T18:13:21.607Z,-1.80
2023-02-06T18:15:54.944Z,-1.80
2023-02-06T18:18:25.072Z,-1.86
2023-02-06T18:20:52.922Z,-1.90
2023-02-06T18:23:19.860Z,-1.90
2023-02-06T18:25:47.296Z,-1.90
2023-02-06T18:28:17.411Z,-1.98
2023-02-06T18:30:45.541Z,-2.00
2023-02-06T18:33:13.051Z,-2.00
2023-02-06T18:35:42.657Z,-2.00
2023-02-06T18:38:10.696Z,-2.08
2023-02-06T18:40:39.447Z,-2.10
2023-02-06T18:43:07.992Z,-2.10
2023-02-06T18:45:37.672Z,-2.20
2023-02-06T18:48:07.327Z,-2.20
2023-02-06T18:50:35.796Z,-2.20
2023-02-06T18:53:04.086Z,-2.30
2023-02-06T18:55:35.289Z,-2.30
2023-02-06T18:58:02.964Z,-2.32
2023-02-06T19:00:30.648Z,-2.40
2023-02-06T19:02:59.510Z,-2.40
2023-02-06T19:05:29.765Z,-2.44
2023-02-06T19:07:57.616Z,-2.50
2023-02-06T19:10:25.895Z,-2.50
2023-02-06T19:12:52.713Z,-2.50
2023-02-06T19:15:20.004Z,-2.60
2023-02-06T19:17:47.439Z,-2.70
2023-02-06T19:20:14.494Z,-2.70
2023-02-06T19:22:41.552Z,-2.54
2023-02-06T19:25:12.623Z,-2.50
2023-02-06T19:27:42.296Z,-2.50
2023-02-06T19:30:10.361Z,-2.54
2023-02-06T19:32:38.139Z,-2.64
2023-02-06T19:35:05.685Z,-2.70
2023-02-06T19:37:33.293Z,-2.80
2023-02-06T19:40:00.580Z,-2.80
2023-02-06T19:42:27.761Z,-2.80
2023-02-06T19:44:55.143Z,-2.90
2023-02-06T19:47:22.846Z,-2.90
2023-02-06T19:49:52.940Z,-2.90
2023-02-06T19:52:20.630Z,-2.90
2023-02-06T19:54:48.080Z,-3.02
2023-02-06T19:57:16.291Z,-3.00
2023-02-06T19:59:43.691Z,-3.00
2023-02-06T20:02:14.798Z,-3.00
2023-02-06T20:04:43.148Z,-3.10
2023-02-06T20:07:10.109Z,-3.10
2023-02-06T20:09:41.281Z,-3.10
2023-02-06T20:12:11.327Z,-3.10
2023-02-06T20:14:39.022Z,-3.12
2023-02-06T20:17:06.161Z,-3.20
2023-02-06T20:19:34.337Z,-3.20
2023-02-06T20:22:01.977Z,-3.22
2023-02-06T20:24:31.844Z,-3.30
2023-02-06T20:27:02.165Z,-3.30
2023-02-06T20:29:33.933Z,-3.40
2023-02-06T20:32:01.668Z,-3.40
2023-02-06T20:34:29.803Z,-3.50
2023-02-06T20:36:57.448Z,-3.50
2023-02-06T20:39:25.021Z,-3.60
2023-02-06T20:41:53.092Z,-3.60
2023-02-06T20:44:21.116Z,-3.66
2023-02-06T20:46:48.955Z,-3.70
2023-02-06T20:49:19.230Z,-3.68
2023-02-06T20:51:46.542Z,-3.60
2023-02-06T20:54:13.592Z,-3.60
2023-02-06T20:56:40.931Z,-3.60
2023-02-06T20:59:09.134Z,-3.60
2023-02-06T21:01:36.018Z,-3.60
2023-02-06T21:04:06.777Z,-3.60
2023-02-06T21:06:35.177Z,-3.60
2023-02-06T21:09:03.327Z,-3.60
2023-02-06T21:11:37.001Z,-3.60
2023-02-06T21:14:06.223Z,-3.70
2023-02-06T21:16:34.146Z,-3.70
2023-02-06T21:19:02.272Z,-3.70
2023-02-06T21:21:29.624Z,-3.70
2023-02-06T21:23:56.359Z,-3.70
2023-02-06T21:26:24.677Z,-3.70
2023-02-06T21:28:52.637Z,-3.70
2023-02-06T21:31:23.592Z,-3.70
2023-02-06T21:33:51.561Z,-3.70
2023-02-06T21:36:18.774Z,-3.70
2023-02-06T21:38:45.534Z,-3.70
2023-02-06T21:41:16.367Z,-3.62
2023-02-06T21:43:43.566Z,-3.60
2023-02-06T21:46:11.280Z,-3.60
2023-02-06T21:48:38.411Z,-3.60
2023-02-06T21:51:10.421Z,-3.74
2023-02-06T21:53:37.693Z,-3.72
2023-02-06T21:56:09.686Z,-3.80
2023-02-06T21:58:37.082Z,-3.80
2023-02-06T22:01:08.776Z,-3.80
2023-02-06T22:03:35.878Z,-3.80
2023-02-06T22:06:09.365Z,-3.76
2023-02-06T22:08:37.236Z,-3.70
2023-02-06T22:11:12.453Z,-3.70
2023-02-06T22:13:39.602Z,-3.70
2023-02-06T22:16:07.592Z,-3.70
2023-02-06T22:18:34.397Z,-3.80
2023-02-06T22:21:09.610Z,-3.80
2023-02-06T22:23:36.806Z,-3.80
2023-02-06T22:26:04.774Z,-3.88
2023-02-06T22:28:31.983Z,-3.80
2023-02-06T22:31:07.355Z,-3.90
2023-02-06T22:33:34.840Z,-3.90
2023-02-06T22:36:10.039Z,-3.90
2023-02-06T22:38:37.595Z,-3.90
2023-02-06T22:41:07.105Z,-3.90
2023-02-06T22:43:36.663Z,-3.94
2023-02-06T22:46:04.798Z,-4.00
2023-02-06T22:48:31.845Z,-4.00
2023-02-06T22:51:10.061Z,-4.00
2023-02-06T22:53:37.716Z,-4.00
2023-02-06T22:56:27.193Z,-4.00
2023-02-06T22:58:56.336Z,-4.04
2023-02-06T23:01:25.792Z,-4.10
2023-02-06T23:03:55.085Z,-4.10
2023-02-06T23:06:22.025Z,-4.10
2023-02-06T23:08:48.800Z,-4.10
2023-02-06T23:11:15.922Z,-4.10
2023-02-06T23:13:43.071Z,-4.10
2023-02-06T23:16:10.459Z,-4.10
2023-02-06T23:18:37.776Z,-4.10
2023-02-06T23:21:12.716Z,-4.20
2023-02-06T23:23:40.918Z,-4.22
2023-02-06T23:26:10.384Z,-4.30
2023-02-06T23:28:38.376Z,-4.30
2023-02-06T23:31:06.093Z,-4.40
2023-02-06T23:33:33.793Z,-4.40
2023-02-06T23:36:12.731Z,-4.40
2023-02-06T23:38:40.681Z,-4.40
2023-02-06T23:41:14.163Z,-4.40
2023-02-06T23:43:41.319Z,-4.40
2023-02-06T23:46:12.094Z,-4.40
2023-02-06T23:48:39.577Z,-4.44
2023-02-06T23:51:06.660Z,-4.50
2023-02-06T23:53:33.914Z,-4.48
2023-02-06T23:56:00.873Z,-4.48
2023-02-06T23:58:27.808Z,-4.48
